createdAt,value
2018-07-04T21:00:03.166Z,16.43
2018-07-04T21:03:26.988Z,16.27
2018-07-04T21:06:07.760Z,18.70
2018-07-04T21:08:47.663Z,18.63
2018-07-04T21:11:28.390Z,17.53
2018-07-04T21:14:08.323Z,16.63
2018-07-04T21:16:48.214Z,18.83
2018-07-04T21:19:28.313Z,17.33
2018-07-04T21:22:08.311Z,18.87
2018-07-04T21:24:48.327Z,20.23
2018-07-04T21:27:28.611Z,16.83
2018-07-04T21:30:08.647Z,20.27
2018-07-04T21:32:49.119Z,19.67
2018-07-04T21:35:29.854Z,21.90
2018-07-04T21:38:10.286Z,18.63
2018-07-04T21:40:50.182Z,24.10
2018-07-04T21:43:30.454Z,21.50
2018-07-04T21:46:11.208Z,19.90
2018-07-04T21:48:51.569Z,19.83
2018-07-04T21:51:32.097Z,21.37
2018-07-04T21:54:12.315Z,22.10
2018-07-04T21:56:52.539Z,21.20
2018-07-04T21:59:32.638Z,19.93
2018-07-04T22:02:12.550Z,21.77
2018-07-04T22:04:52.784Z,23.23
2018-07-04T22:07:33.512Z,19.77
2018-07-04T22:10:13.652Z,20.83
2018-07-04T22:12:53.574Z,17.70
2018-07-04T22:15:33.790Z,21.53
2018-07-04T22:18:13.923Z,17.23
2018-07-04T22:20:53.982Z,19.63
2018-07-04T22:23:34.014Z,15.90
2018-07-04T22:26:15.201Z,14.63
2018-07-04T22:28:55.342Z,16.50
2018-07-04T22:31:36.778Z,15.10
2018-07-04T22:34:16.992Z,15.70
2018-07-04T22:36:57.257Z,16.10
2018-07-04T22:39:37.726Z,16.27
2018-07-04T22:42:18.731Z,14.67
2018-07-04T22:45:00.388Z,14.77
2018-07-04T22:47:40.860Z,15.47
2018-07-04T22:50:20.790Z,14.10
2018-07-04T22:53:01.332Z,15.10
2018-07-04T22:55:41.198Z,13.83
2018-07-04T22:58:21.588Z,15.90
2018-07-04T23:01:01.829Z,14.47
2018-07-04T23:03:42.504Z,13.37
2018-07-04T23:06:22.459Z,14.57
2018-07-04T23:09:02.690Z,13.90
2018-07-04T23:11:42.853Z,13.67
2018-07-04T23:14:23.140Z,13.67
2018-07-04T23:17:03.212Z,12.70
2018-07-04T23:19:43.850Z,13.50
2018-07-04T23:22:23.703Z,11.10
2018-07-04T23:25:03.619Z,12.37
2018-07-04T23:27:43.904Z,12.33
2018-07-04T23:30:24.156Z,10.90
2018-07-04T23:33:04.108Z,11.30
2018-07-04T23:35:44.421Z,11.10
2018-07-04T23:38:24.418Z,11.20
2018-07-04T23:41:04.790Z,12.80
2018-07-04T23:43:44.877Z,10.23
2018-07-04T23:46:26.110Z,12.30
2018-07-04T23:49:06.165Z,11.40
2018-07-04T23:51:46.519Z,9.10
2018-07-04T23:54:26.441Z,12.97
2018-07-04T23:57:06.885Z,10.40
2018-07-04T23:59:47.068Z,9.47
